createdAt,value
2023-01-29T00:02:04.749Z,85.29
2023-01-29T00:04:31.600Z,85.30
2023-01-29T00:06:58.125Z,84.71
2023-01-29T00:09:24.545Z,84.92
2023-01-29T00:11:50.981Z,85.09
2023-01-29T00:14:17.376Z,84.81
2023-01-29T00:16:43.760Z,85.47
2023-01-29T00:19:10.227Z,85.09
2023-01-29T00:21:36.617Z,84.57
2023-01-29T00:24:03.119Z,84.97
2023-01-29T00:26:29.671Z,85.57
2023-01-29T00:29:01.927Z,84.95
2023-01-29T00:31:28.779Z,84.97
2023-01-29T00:33:55.347Z,84.96
2023-01-29T00:36:22.049Z,85.15
2023-01-29T00:38:58.545Z,85.27
2023-01-29T00:41:51.583Z,85.25
2023-01-29T00:44:36.878Z,85.07
2023-01-29T00:47:04.139Z,85.10
2023-01-29T00:49:38.166Z,84.83
2023-01-29T00:52:33.718Z,85.12
2023-01-29T00:55:00.825Z,85.20
2023-01-29T00:57:29.174Z,85.08
2023-01-29T00:59:55.634Z,85.41
2023-01-29T01:02:41.322Z,85.15
2023-01-29T01:05:13.981Z,85.24
2023-01-29T01:07:41.279Z,85.22
2023-01-29T01:10:21.415Z,85.53
2023-01-29T01:12:55.542Z,85.31
2023-01-29T01:15:24.238Z,85.96
2023-01-29T01:17:55.585Z,85.63
2023-01-29T01:20:22.842Z,85.89
2023-01-29T01:22:49.375Z,85.55
2023-01-29T01:25:16.108Z,85.94
2023-01-29T01:27:42.568Z,85.34
2023-01-29T01:30:16.578Z,85.21
2023-01-29T01:32:43.459Z,85.51
2023-01-29T01:35:11.274Z,86.12
2023-01-29T01:37:38.669Z,85.21
2023-01-29T01:40:12.688Z,85.55
2023-01-29T01:42:40.174Z,85.84
2023-01-29T01:45:17.766Z,85.28
2023-01-29T01:47:48.923Z,85.21
2023-01-29T01:50:20.976Z,85.55
2023-01-29T01:52:52.981Z,85.80
2023-01-29T01:55:23.052Z,85.83
2023-01-29T01:57:54.729Z,85.79
2023-01-29T02:00:22.113Z,85.81
2023-01-29T02:03:07.173Z,85.27
2023-01-29T02:05:54.945Z,85.60
2023-01-29T02:09:01.534Z,85.54
2023-01-29T02:11:27.925Z,85.67
2023-01-29T02:13:54.328Z,85.51
2023-01-29T02:16:22.281Z,85.47
2023-01-29T02:18:49.949Z,86.03
2023-01-29T02:21:31.586Z,86.25
2023-01-29T02:24:11.401Z,86.22
2023-01-29T02:26:41.448Z,85.85
2023-01-29T02:29:26.917Z,85.41
2023-01-29T02:32:02.521Z,85.78
2023-01-29T02:35:10.964Z,86.32
2023-01-29T02:37:45.478Z,85.83
2023-01-29T02:40:29.045Z,86.18
2023-01-29T02:43:14.468Z,86.21
2023-01-29T02:45:53.948Z,86.47
2023-01-29T02:48:24.135Z,86.21
2023-01-29T02:51:05.847Z,86.52
2023-01-29T02:53:39.221Z,86.66
2023-01-29T02:56:18.705Z,86.42
2023-01-29T02:58:54.827Z,86.10
2023-01-29T03:01:30.227Z,86.62
2023-01-29T03:04:06.784Z,86.25
2023-01-29T03:06:35.948Z,85.91
2023-01-29T03:09:08.108Z,86.70
2023-01-29T03:11:40.552Z,86.44
2023-01-29T03:14:20.507Z,86.28
2023-01-29T03:16:51.893Z,86.56
2023-01-29T03:19:41.197Z,86.77
2023-01-29T03:22:10.962Z,86.71
2023-01-29T03:25:07.268Z,86.39
2023-01-29T03:28:17.421Z,86.61
2023-01-29T03:31:18.883Z,86.31
2023-01-29T03:33:51.971Z,86.15
2023-01-29T03:36:27.829Z,86.26
2023-01-29T03:38:54.427Z,85.82
2023-01-29T03:41:31.368Z,86.33
2023-01-29T03:44:16.398Z,86.04
2023-01-29T03:47:21.652Z,85.82
2023-01-29T03:49:54.123Z,86.03
2023-01-29T03:52:26.128Z,85.80
2023-01-29T03:55:07.259Z,85.70
2023-01-29T03:57:51.961Z,86.14
2023-01-29T04:00:23.554Z,86.16
2023-01-29T04:03:17.966Z,85.98
2023-01-29T04:05:58.408Z,85.87
2023-01-29T04:08:30.470Z,85.59
2023-01-29T04:11:02.213Z,86.10
2023-01-29T04:13:33.594Z,86.00
2023-01-29T04:16:01.572Z,86.54
2023-01-29T04:18:27.950Z,86.37
2023-01-29T04:20:54.910Z,86.70
2023-01-29T04:23:26.274Z,86.23
2023-01-29T04:26:06.827Z,86.39
2023-01-29T04:28:58.789Z,86.63
2023-01-29T04:31:31.656Z,86.48
2023-01-29T04:34:07.112Z,87.16
2023-01-29T04:36:58.626Z,86.54
2023-01-29T04:39:33.030Z,86.52
2023-01-29T04:42:12.119Z,86.15
2023-01-29T04:45:17.709Z,87.03
2023-01-29T04:48:10.683Z,86.45
2023-01-29T04:50:42.071Z,86.57
2023-01-29T04:53:34.749Z,86.44
2023-01-29T04:56:07.058Z,86.51
2023-01-29T04:58:41.953Z,87.39
2023-01-29T05:01:12.909Z,87.13
2023-01-29T05:03:42.320Z,86.92
2023-01-29T05:06:11.689Z,86.78
2023-01-29T05:08:40.405Z,86.21
2023-01-29T05:11:07.392Z,86.35
2023-01-29T05:13:39.692Z,86.69
2023-01-29T05:16:14.484Z,86.76
2023-01-29T05:18:41.149Z,86.47
2023-01-29T05:21:09.075Z,86.87
2023-01-29T05:23:35.827Z,87.12
2023-01-29T05:26:03.616Z,87.38
2023-01-29T05:28:30.337Z,86.61
2023-01-29T05:30:57.520Z,85.91
2023-01-29T05:33:27.308Z,86.70
2023-01-29T05:35:55.338Z,86.47
2023-01-29T05:38:22.880Z,86.39
2023-01-29T05:40:49.399Z,86.10
2023-01-29T05:43:15.742Z,87.19
2023-01-29T05:45:42.279Z,85.92
2023-01-29T05:48:08.705Z,86.75
2023-01-29T05:50:35.399Z,86.42
2023-01-29T05:53:02.043Z,86.26
2023-01-29T05:55:31.818Z,86.27
2023-01-29T05:57:58.404Z,86.60
2023-01-29T06:00:24.904Z,86.03
2023-01-29T06:02:51.371Z,85.97
2023-01-29T06:05:17.849Z,85.88
2023-01-29T06:07:45.497Z,85.52
2023-01-29T06:10:17.503Z,85.75
2023-01-29T06:12:44.641Z,85.65
2023-01-29T06:15:12.016Z,85.54
2023-01-29T06:17:38.395Z,85.83
2023-01-29T06:20:05.873Z,86.13
2023-01-29T06:22:33.444Z,85.50
2023-01-29T06:24:59.828Z,85.50
2023-01-29T06:27:26.225Z,85.43
2023-01-29T06:29:52.606Z,85.67
2023-01-29T06:32:19.055Z,85.21
2023-01-29T06:34:46.767Z,84.79
2023-01-29T06:37:14.392Z,85.04
2023-01-29T06:39:40.806Z,85.41
2023-01-29T06:42:07.220Z,85.34
2023-01-29T06:44:33.625Z,84.45
2023-01-29T06:47:00.066Z,84.43
2023-01-29T06:49:26.494Z,84.17
2023-01-29T06:51:52.875Z,84.31
2023-01-29T06:54:19.262Z,84.01
2023-01-29T06:56:45.634Z,84.37
2023-01-29T06:59:12.691Z,84.19
2023-01-29T07:01:42.371Z,83.95
2023-01-29T07:04:08.950Z,83.48
2023-01-29T07:06:38.826Z,84.32
2023-01-29T07:09:05.284Z,84.73
2023-01-29T07:11:33.897Z,84.74
2023-01-29T07:14:00.385Z,84.41
2023-01-29T07:16:26.949Z,84.31
2023-01-29T07:18:53.568Z,84.00
2023-01-29T07:21:20.208Z,84.64
2023-01-29T07:23:46.692Z,83.78
2023-01-29T07:26:13.168Z,84.57
2023-01-29T07:28:40.617Z,84.75
2023-01-29T07:31:07.893Z,84.88
2023-01-29T07:33:34.695Z,84.77
2023-01-29T07:36:01.168Z,84.90
2023-01-29T07:38:27.960Z,84.47
2023-01-29T07:40:54.765Z,83.91
2023-01-29T07:43:21.166Z,84.59
2023-01-29T07:45:47.676Z,84.42
2023-01-29T07:48:14.117Z,84.68
2023-01-29T07:50:40.606Z,84.57
2023-01-29T07:53:07.215Z,84.73
2023-01-29T07:55:33.869Z,84.51
2023-01-29T07:58:03.062Z,84.41
2023-01-29T08:00:31.270Z,84.79
2023-01-29T08:03:06.029Z,84.79
2023-01-29T08:05:32.802Z,84.67
2023-01-29T08:08:06.640Z,84.76
2023-01-29T08:10:36.058Z,83.90
2023-01-29T08:13:04.319Z,83.88
2023-01-29T08:15:31.570Z,83.67
2023-01-29T08:17:58.535Z,84.19
2023-01-29T08:20:25.791Z,83.93
2023-01-29T08:23:00.151Z,84.06
2023-01-29T08:25:27.396Z,83.61
2023-01-29T08:27:54.495Z,83.99
2023-01-29T08:30:20.897Z,84.12
2023-01-29T08:32:47.367Z,83.94
2023-01-29T08:35:13.815Z,83.13
2023-01-29T08:37:40.240Z,83.29
2023-01-29T08:40:09.347Z,83.40
2023-01-29T08:42:35.811Z,82.84
2023-01-29T08:45:02.224Z,83.53
2023-01-29T08:47:29.432Z,82.75
2023-01-29T08:49:56.051Z,83.24
2023-01-29T08:52:22.436Z,82.76
2023-01-29T08:54:48.781Z,82.54
2023-01-29T08:57:15.223Z,82.63
2023-01-29T08:59:41.638Z,82.14
2023-01-29T09:02:10.933Z,82.76
2023-01-29T09:04:37.293Z,82.20
2023-01-29T09:07:03.690Z,82.45
2023-01-29T09:09:30.106Z,81.99
2023-01-29T09:11:56.510Z,82.00
2023-01-29T09:14:22.984Z,82.13
2023-01-29T09:16:49.724Z,82.52
2023-01-29T09:19:16.217Z,82.59
2023-01-29T09:21:42.685Z,82.38
2023-01-29T09:24:09.041Z,81.85
2023-01-29T09:26:35.830Z,81.58
2023-01-29T09:29:02.199Z,81.65
2023-01-29T09:31:28.750Z,81.20
2023-01-29T09:33:55.223Z,82.11
2023-01-29T09:36:21.625Z,80.83
2023-01-29T09:38:48.008Z,81.70
2023-01-29T09:41:49.481Z,81.39
2023-01-29T09:44:43.463Z,81.54
2023-01-29T09:47:15.037Z,81.81
2023-01-29T09:49:46.976Z,81.08
2023-01-29T09:52:24.773Z,81.17
2023-01-29T09:55:02.473Z,80.98
2023-01-29T09:57:46.055Z,80.93
2023-01-29T10:00:38.510Z,81.38
2023-01-29T10:03:11.099Z,80.98
2023-01-29T10:05:46.343Z,80.57
2023-01-29T10:08:30.662Z,81.22
2023-01-29T10:10:59.663Z,80.42
2023-01-29T10:13:39.379Z,80.33
2023-01-29T10:16:21.311Z,81.17
2023-01-29T10:18:59.928Z,81.19
2023-01-29T10:22:03.548Z,81.16
2023-01-29T10:24:46.593Z,80.39
2023-01-29T10:27:15.964Z,81.42
2023-01-29T10:29:44.324Z,80.63
2023-01-29T10:32:20.795Z,81.34
2023-01-29T10:34:54.807Z,80.54
2023-01-29T10:37:26.363Z,80.65
2023-01-29T10:39:52.846Z,80.90
2023-01-29T10:42:41.467Z,80.71
2023-01-29T10:45:28.075Z,80.94
2023-01-29T10:47:54.446Z,81.28
2023-01-29T10:50:40.314Z,80.07
2023-01-29T10:53:12.625Z,81.12
2023-01-29T10:56:21.978Z,80.88
2023-01-29T10:58:51.378Z,80.68
2023-01-29T11:01:17.897Z,80.59
2023-01-29T11:03:44.604Z,81.03
2023-01-29T11:06:21.728Z,81.12
2023-01-29T11:08:56.804Z,80.75
2023-01-29T11:11:38.803Z,81.24
2023-01-29T11:14:12.129Z,80.55
2023-01-29T11:16:48.946Z,80.84
2023-01-29T11:19:16.478Z,80.30
2023-01-29T11:22:01.383Z,80.83
2023-01-29T11:24:28.553Z,80.42
2023-01-29T11:26:58.688Z,80.52
2023-01-29T11:29:45.963Z,80.53
2023-01-29T11:32:26.553Z,81.39
2023-01-29T11:34:57.593Z,80.60
2023-01-29T11:37:38.241Z,80.86
2023-01-29T11:40:38.347Z,81.21
2023-01-29T11:43:27.075Z,80.98
2023-01-29T11:45:56.057Z,81.73
2023-01-29T11:48:27.351Z,81.89
2023-01-29T11:50:57.945Z,81.87
2023-01-29T11:53:40.717Z,82.00
2023-01-29T11:56:26.759Z,82.11
2023-01-29T11:58:55.810Z,81.97
2023-01-29T12:01:36.549Z,82.51
2023-01-29T12:04:12.854Z,83.01
2023-01-29T12:06:44.255Z,83.61
2023-01-29T12:09:17.003Z,83.67
2023-01-29T12:11:43.566Z,83.97
2023-01-29T12:14:26.821Z,83.99
2023-01-29T12:16:59.387Z,83.72
2023-01-29T12:19:34.618Z,83.80
2023-01-29T12:22:14.641Z,83.35
2023-01-29T12:25:06.141Z,83.49
2023-01-29T12:27:58.803Z,83.52
2023-01-29T12:30:31.787Z,83.88
2023-01-29T12:33:12.228Z,83.75
2023-01-29T12:35:45.834Z,83.57
2023-01-29T12:38:20.655Z,83.37
2023-01-29T12:40:55.987Z,83.30
2023-01-29T12:43:30.600Z,83.50
2023-01-29T12:45:59.723Z,84.01
2023-01-29T12:48:32.601Z,83.54
2023-01-29T12:51:07.626Z,84.10
2023-01-29T12:53:43.604Z,84.44
2023-01-29T12:56:15.445Z,84.48
2023-01-29T12:58:46.530Z,84.72
2023-01-29T13:01:27.098Z,83.94
2023-01-29T13:03:59.472Z,83.91
2023-01-29T13:06:31.211Z,83.82
2023-01-29T13:09:02.948Z,84.23
2023-01-29T13:11:55.991Z,84.16
2023-01-29T13:14:25.954Z,84.15
2023-01-29T13:17:01.259Z,83.94
2023-01-29T13:19:34.224Z,84.51
2023-01-29T13:22:05.343Z,83.68
2023-01-29T13:24:39.572Z,83.68
2023-01-29T13:27:06.784Z,82.78
2023-01-29T13:29:33.786Z,82.90
2023-01-29T13:32:03.501Z,83.00
2023-01-29T13:34:50.518Z,83.49
2023-01-29T13:37:19.932Z,83.21
2023-01-29T13:39:50.366Z,82.65
2023-01-29T13:42:18.537Z,82.78
2023-01-29T13:45:01.209Z,82.78
2023-01-29T13:47:30.630Z,83.34
2023-01-29T13:50:07.946Z,82.88
2023-01-29T13:52:45.018Z,83.10
2023-01-29T13:55:14.444Z,83.43
2023-01-29T13:57:43.884Z,83.04
2023-01-29T14:00:22.599Z,82.96
2023-01-29T14:03:11.638Z,83.25
2023-01-29T14:05:43.018Z,82.72
2023-01-29T14:08:09.337Z,84.08
2023-01-29T14:10:37.521Z,83.58
2023-01-29T14:13:03.821Z,83.43
2023-01-29T14:15:36.041Z,84.12
2023-01-29T14:18:08.432Z,83.70
2023-01-29T14:20:45.854Z,83.50
2023-01-29T14:23:30.585Z,83.93
2023-01-29T14:26:00.717Z,83.93
2023-01-29T14:28:30.646Z,83.99
2023-01-29T14:30:57.555Z,83.51
2023-01-29T14:33:38.553Z,84.17
2023-01-29T14:36:09.301Z,83.57
2023-01-29T14:38:36.222Z,84.17
2023-01-29T14:41:31.403Z,83.75
2023-01-29T14:44:35.635Z,83.75
2023-01-29T14:47:02.224Z,83.84
2023-01-29T14:49:57.720Z,83.53
2023-01-29T14:52:38.288Z,83.60
2023-01-29T14:55:11.038Z,83.86
2023-01-29T14:57:38.791Z,83.92
2023-01-29T15:00:21.438Z,83.99
2023-01-29T15:03:01.302Z,84.12
2023-01-29T15:05:32.803Z,83.76
2023-01-29T15:08:16.477Z,83.60
2023-01-29T15:10:48.245Z,84.14
2023-01-29T15:13:30.894Z,83.54
2023-01-29T15:16:06.212Z,84.40
2023-01-29T15:18:43.148Z,83.81
2023-01-29T15:21:19.310Z,84.35
2023-01-29T15:23:48.693Z,84.81
2023-01-29T15:26:24.761Z,84.92
2023-01-29T15:29:04.121Z,84.72
2023-01-29T15:31:31.290Z,84.65
2023-01-29T15:34:03.021Z,84.61
2023-01-29T15:36:31.536Z,84.72
2023-01-29T15:39:09.746Z,84.87
2023-01-29T15:41:36.163Z,84.84
2023-01-29T15:44:02.552Z,85.03
2023-01-29T15:46:41.267Z,84.93
2023-01-29T15:49:11.463Z,85.56
2023-01-29T15:51:39.032Z,85.70
2023-01-29T15:54:15.912Z,85.58
2023-01-29T15:56:52.270Z,85.88
2023-01-29T15:59:26.977Z,85.68
2023-01-29T16:01:54.375Z,85.87
2023-01-29T16:04:26.807Z,85.42
2023-01-29T16:06:55.581Z,86.64
2023-01-29T16:09:25.095Z,86.27
2023-01-29T16:11:54.468Z,87.04
2023-01-29T16:14:25.454Z,87.23
2023-01-29T16:16:52.595Z,87.45
2023-01-29T16:19:22.971Z,88.33
2023-01-29T16:22:16.180Z,88.18
2023-01-29T16:24:42.626Z,89.26
2023-01-29T16:27:13.788Z,89.98
2023-01-29T16:29:40.649Z,90.03
2023-01-29T16:32:09.215Z,89.47
2023-01-29T16:34:42.059Z,89.54
2023-01-29T16:37:25.305Z,89.66
2023-01-29T16:39:52.852Z,89.05
2023-01-29T16:42:23.608Z,89.62
2023-01-29T16:44:51.191Z,90.10
2023-01-29T16:47:59.182Z,90.08
2023-01-29T16:50:36.194Z,89.98
2023-01-29T16:53:16.368Z,90.65
2023-01-29T16:55:46.841Z,91.01
2023-01-29T16:58:17.610Z,90.91
2023-01-29T17:00:49.593Z,91.10
2023-01-29T17:03:18.225Z,91.20
2023-01-29T17:05:45.495Z,90.64
2023-01-29T17:08:25.469Z,90.93
2023-01-29T17:10:53.502Z,90.61
2023-01-29T17:13:44.174Z,90.93
2023-01-29T17:16:25.687Z,91.10
2023-01-29T17:18:52.399Z,91.53
2023-01-29T17:21:18.893Z,91.41
2023-01-29T17:23:45.324Z,91.13
2023-01-29T17:26:14.229Z,90.80
2023-01-29T17:28:41.775Z,91.28
2023-01-29T17:31:08.771Z,90.38
2023-01-29T17:33:44.086Z,90.58
2023-01-29T17:36:16.519Z,90.55
2023-01-29T17:38:43.382Z,90.50
2023-01-29T17:41:28.364Z,89.62
2023-01-29T17:43:54.799Z,90.14
2023-01-29T17:46:21.605Z,89.63
2023-01-29T17:48:49.441Z,89.81
2023-01-29T17:51:17.723Z,89.17
2023-01-29T17:53:46.272Z,89.74
2023-01-29T17:56:27.970Z,89.00
2023-01-29T17:58:54.336Z,88.93
2023-01-29T18:01:20.812Z,88.94
2023-01-29T18:03:47.602Z,89.10
2023-01-29T18:06:28.265Z,88.65
2023-01-29T18:08:54.782Z,89.05
2023-01-29T18:11:21.314Z,89.24
2023-01-29T18:13:47.729Z,88.69
2023-01-29T18:16:14.272Z,89.13
2023-01-29T18:18:40.659Z,88.84
2023-01-29T18:21:07.965Z,89.02
2023-01-29T18:23:34.446Z,89.57
2023-01-29T18:26:00.959Z,89.37
2023-01-29T18:28:27.469Z,89.29
2023-01-29T18:30:54.021Z,89.57
2023-01-29T18:33:20.803Z,89.36
2023-01-29T18:35:48.199Z,89.69
2023-01-29T18:38:14.948Z,89.81
2023-01-29T18:40:41.350Z,90.04
2023-01-29T18:43:07.766Z,90.20
2023-01-29T18:45:34.146Z,90.26
2023-01-29T18:48:01.350Z,90.08
2023-01-29T18:50:28.006Z,90.41
2023-01-29T18:52:54.889Z,90.39
2023-01-29T18:55:21.924Z,90.24
2023-01-29T18:58:27.714Z,90.91
2023-01-29T19:00:38.297Z,90.29
2023-01-29T19:03:04.680Z,90.75
2023-01-29T19:05:33.694Z,91.00
2023-01-29T19:08:00.099Z,90.90
2023-01-29T19:10:26.496Z,91.28
2023-01-29T19:12:52.989Z,91.32
2023-01-29T19:15:21.988Z,91.48
2023-01-29T19:17:50.540Z,91.48
2023-01-29T19:20:17.430Z,91.06
2023-01-29T19:22:43.871Z,91.45
2023-01-29T19:25:10.889Z,91.34
2023-01-29T19:27:37.298Z,91.34
2023-01-29T19:30:05.627Z,90.88
2023-01-29T19:32:32.490Z,91.21
2023-01-29T19:34:58.966Z,91.09
2023-01-29T19:37:25.817Z,91.68
2023-01-29T19:39:53.529Z,91.23
2023-01-29T19:42:20.811Z,91.65
2023-01-29T19:44:47.365Z,91.16
2023-01-29T19:47:13.820Z,91.27
2023-01-29T19:49:40.546Z,91.24
2023-01-29T19:52:14.762Z,91.86
2023-01-29T19:54:45.985Z,91.61
2023-01-29T19:57:12.387Z,91.66
2023-01-29T19:59:38.802Z,91.69
2023-01-29T20:02:05.302Z,92.24
2023-01-29T20:04:31.842Z,91.92
2023-01-29T20:06:58.413Z,91.86
2023-01-29T20:09:24.815Z,92.12
2023-01-29T20:11:51.222Z,92.12
2023-01-29T20:14:17.657Z,92.10
2023-01-29T20:16:44.104Z,92.11
2023-01-29T20:19:13.432Z,92.72
2023-01-29T20:21:42.211Z,92.26
2023-01-29T20:24:12.336Z,92.11
2023-01-29T20:26:39.030Z,92.70
2023-01-29T20:29:06.370Z,92.48
2023-01-29T20:31:32.892Z,92.56
2023-01-29T20:33:59.326Z,92.73
2023-01-29T20:36:25.756Z,92.89
2023-01-29T20:38:52.167Z,92.60
2023-01-29T20:41:19.898Z,93.26
2023-01-29T20:43:47.221Z,93.27
2023-01-29T20:46:14.024Z,93.04
2023-01-29T20:48:42.038Z,93.59
2023-01-29T20:51:15.446Z,93.58
2023-01-29T20:53:43.213Z,93.43
2023-01-29T20:56:09.934Z,94.00
2023-01-29T20:58:38.054Z,93.75
2023-01-29T21:01:09.397Z,94.06
2023-01-29T21:03:35.842Z,94.38
2023-01-29T21:06:02.522Z,94.61
2023-01-29T21:08:28.922Z,94.88
2023-01-29T21:10:55.311Z,95.41
2023-01-29T21:13:21.758Z,94.75
2023-01-29T21:15:49.980Z,95.34
2023-01-29T21:18:16.617Z,95.13
2023-01-29T21:20:43.015Z,95.82
2023-01-29T21:23:09.659Z,95.78
2023-01-29T21:25:36.387Z,96.11
2023-01-29T21:28:04.311Z,96.38
2023-01-29T21:30:30.887Z,96.30
2023-01-29T21:32:57.306Z,96.62
2023-01-29T21:35:23.738Z,96.54
2023-01-29T21:37:50.222Z,96.81
2023-01-29T21:40:17.212Z,97.10
2023-01-29T21:43:02.596Z,96.22
2023-01-29T21:45:29.166Z,96.88
2023-01-29T21:47:55.596Z,97.15
2023-01-29T21:50:22.026Z,97.73
2023-01-29T21:52:48.427Z,97.00
2023-01-29T21:55:15.802Z,97.81
2023-01-29T21:57:42.931Z,97.20
2023-01-29T22:00:11.858Z,97.74
2023-01-29T22:02:38.313Z,97.39
2023-01-29T22:05:18.088Z,97.65
2023-01-29T22:07:44.967Z,98.31
2023-01-29T22:10:12.387Z,98.50
2023-01-29T22:12:39.401Z,98.21
2023-01-29T22:15:07.161Z,98.92
2023-01-29T22:17:33.992Z,98.69
2023-01-29T22:20:00.875Z,98.95
2023-01-29T22:22:27.331Z,99.13
2023-01-29T22:24:55.055Z,99.08
2023-01-29T22:27:21.512Z,99.35
2023-01-29T22:29:47.879Z,99.22
2023-01-29T22:32:14.272Z,99.61
2023-01-29T22:34:40.893Z,99.13
2023-01-29T22:37:07.528Z,99.40
2023-01-29T22:39:33.966Z,99.87
2023-01-29T22:42:00.364Z,99.67
2023-01-29T22:44:26.736Z,100.00
2023-01-29T22:46:53.222Z,99.73
2023-01-29T22:49:19.749Z,100.00
2023-01-29T22:51:47.034Z,99.95
2023-01-29T22:54:15.388Z,100.00
2023-01-29T22:56:41.853Z,100.00
2023-01-29T22:59:10.199Z,100.00
2023-01-29T23:01:36.663Z,100.00
2023-01-29T23:04:03.059Z,100.00
2023-01-29T23:06:29.448Z,100.00
2023-01-29T23:08:55.942Z,100.00
2023-01-29T23:11:23.474Z,100.00
2023-01-29T23:13:52.744Z,100.00
2023-01-29T23:16:21.464Z,100.00
2023-01-29T23:18:53.553Z,100.00
2023-01-29T23:21:21.766Z,100.00
2023-01-29T23:23:48.800Z,100.00
2023-01-29T23:26:33.878Z,100.00
2023-01-29T23:29:00.567Z,100.00
2023-01-29T23:31:27.033Z,100.00
2023-01-29T23:33:53.470Z,100.00
2023-01-29T23:36:19.824Z,100.00
2023-01-29T23:38:46.261Z,100.00
2023-01-29T23:41:12.630Z,100.00
2023-01-29T23:43:39.061Z,100.00
2023-01-29T23:46:05.675Z,100.00
2023-01-29T23:48:32.031Z,100.00
2023-01-29T23:50:58.370Z,100.00
2023-01-29T23:53:24.785Z,100.00
2023-01-29T23:55:59.030Z,100.00
2023-01-29T23:58:25.895Z,100.00
